createdAt,value
2018-05-25T00:01:26.695Z,17.90
2018-05-25T00:03:54.993Z,17.90
2018-05-25T00:06:23.256Z,17.80
2018-05-25T00:08:51.545Z,17.80
2018-05-25T00:11:19.053Z,17.70
2018-05-25T00:13:46.547Z,17.80
2018-05-25T00:16:14.840Z,17.80
2018-05-25T00:18:42.366Z,17.70
2018-05-25T00:21:09.908Z,17.80
2018-05-25T00:23:37.404Z,17.80
2018-05-25T00:26:05.709Z,17.80
2018-05-25T00:28:33.258Z,17.80
2018-05-25T00:31:00.754Z,17.80
2018-05-25T00:33:28.279Z,17.80
2018-05-25T00:35:55.794Z,17.80
2018-05-25T00:38:23.312Z,17.80
2018-05-25T00:40:50.836Z,17.80
2018-05-25T00:43:19.130Z,17.80
2018-05-25T00:45:47.391Z,17.80
2018-05-25T00:48:15.698Z,17.80
2018-05-25T00:50:43.217Z,17.70
2018-05-25T00:53:10.738Z,17.80
2018-05-25T00:55:40.807Z,17.70
2018-05-25T00:58:09.103Z,17.60
2018-05-25T01:00:37.357Z,17.60
2018-05-25T01:03:04.880Z,17.60
2018-05-25T01:05:32.372Z,17.60
2018-05-25T01:07:59.989Z,17.60
2018-05-25T01:10:27.529Z,17.50
2018-05-25T01:12:55.802Z,17.50
2018-05-25T01:15:24.085Z,17.40
2018-05-25T01:17:51.606Z,17.40
2018-05-25T01:20:19.270Z,17.40
2018-05-25T01:22:46.872Z,17.40
2018-05-25T01:25:14.366Z,17.40
2018-05-25T01:27:41.882Z,17.30
2018-05-25T01:30:10.158Z,17.30
2018-05-25T01:32:38.440Z,17.30
2018-05-25T01:35:06.759Z,17.20
2018-05-25T01:37:34.283Z,17.20
2018-05-25T01:40:01.771Z,17.20
2018-05-25T01:42:29.303Z,17.20
2018-05-25T01:44:57.563Z,17.10
2018-05-25T01:47:25.855Z,17.00
2018-05-25T01:49:53.438Z,17.00
2018-05-25T01:52:20.952Z,17.00
2018-05-25T01:54:48.452Z,17.00
2018-05-25T01:57:15.956Z,16.90
2018-05-25T01:59:43.559Z,16.90
2018-05-25T02:02:11.835Z,16.90
2018-05-25T02:04:40.100Z,16.80
2018-05-25T02:07:08.385Z,16.80
2018-05-25T02:09:36.659Z,16.70
2018-05-25T02:12:04.938Z,16.70
2018-05-25T02:14:33.242Z,16.70
2018-05-25T02:17:00.738Z,16.60
2018-05-25T02:19:28.238Z,16.60
2018-05-25T02:21:56.532Z,16.60
2018-05-25T02:24:24.037Z,16.50
2018-05-25T02:26:51.526Z,16.50
2018-05-25T02:29:19.810Z,16.40
2018-05-25T02:31:48.085Z,16.40
2018-05-25T02:34:16.368Z,16.40
2018-05-25T02:36:44.685Z,16.40
2018-05-25T02:39:12.235Z,16.40
2018-05-25T02:41:39.741Z,16.40
2018-05-25T02:44:07.256Z,16.40
2018-05-25T02:46:34.761Z,16.40
2018-05-25T02:49:02.389Z,16.30
2018-05-25T02:51:29.919Z,16.30
2018-05-25T02:53:57.444Z,16.30
2018-05-25T02:56:24.958Z,16.30
2018-05-25T02:58:52.476Z,16.30
2018-05-25T03:01:19.988Z,16.30
2018-05-25T03:03:47.523Z,16.30
2018-05-25T03:06:15.052Z,16.30
2018-05-25T03:08:42.553Z,16.30
2018-05-25T03:11:10.060Z,16.30
2018-05-25T03:13:37.555Z,16.20
2018-05-25T03:16:05.870Z,16.20
2018-05-25T03:18:33.711Z,16.10
2018-05-25T03:21:01.238Z,16.10
2018-05-25T03:23:28.782Z,16.10
2018-05-25T03:25:56.493Z,16.10
2018-05-25T03:28:24.066Z,16.10
2018-05-25T03:30:51.590Z,16.10
2018-05-25T03:33:19.854Z,16.00
2018-05-25T03:35:48.944Z,16.00
2018-05-25T03:38:16.451Z,16.00
2018-05-25T03:40:43.974Z,16.00
2018-05-25T03:43:11.474Z,16.00
2018-05-25T03:45:38.970Z,16.00
2018-05-25T03:48:06.491Z,16.00
2018-05-25T03:50:34.025Z,16.00
2018-05-25T03:53:02.326Z,16.10
2018-05-25T03:55:29.842Z,16.00
2018-05-25T03:57:58.884Z,16.00
2018-05-25T04:00:38.262Z,16.00
2018-05-25T04:03:06.677Z,16.10
2018-05-25T04:05:34.974Z,16.10
2018-05-25T04:08:03.259Z,16.10
2018-05-25T04:10:30.772Z,16.00
2018-05-25T04:12:58.282Z,16.10
2018-05-25T04:15:25.789Z,16.10
2018-05-25T04:17:53.344Z,16.20
2018-05-25T04:20:20.877Z,16.20
2018-05-25T04:22:48.405Z,16.20
2018-05-25T04:25:16.680Z,16.30
2018-05-25T04:27:44.961Z,16.30
2018-05-25T04:30:13.235Z,16.30
2018-05-25T04:32:41.527Z,16.30
2018-05-25T04:35:09.819Z,16.30
2018-05-25T04:37:37.344Z,16.30
2018-05-25T04:40:04.837Z,16.30
2018-05-25T04:42:32.354Z,16.30
2018-05-25T04:44:59.871Z,16.40
2018-05-25T04:47:27.390Z,16.40
2018-05-25T04:49:55.651Z,16.50
2018-05-25T04:52:23.183Z,16.40
2018-05-25T04:54:51.662Z,16.50
2018-05-25T04:57:19.179Z,16.60
2018-05-25T04:59:47.483Z,16.60
2018-05-25T05:02:15.044Z,16.60
2018-05-25T05:04:42.534Z,16.70
2018-05-25T05:07:10.047Z,16.80
2018-05-25T05:09:37.558Z,16.80
2018-05-25T05:12:05.077Z,16.90
2018-05-25T05:14:32.588Z,17.00
2018-05-25T05:17:00.191Z,17.10
2018-05-25T05:19:27.750Z,17.20
2018-05-25T05:21:55.310Z,17.30
2018-05-25T05:24:22.856Z,17.40
2018-05-25T05:26:51.127Z,17.70
2018-05-25T05:29:19.434Z,17.70
2018-05-25T05:31:46.934Z,17.70
2018-05-25T05:34:14.439Z,17.80
2018-05-25T05:36:42.718Z,17.90
2018-05-25T05:39:10.993Z,18.00
2018-05-25T05:41:39.330Z,18.10
2018-05-25T05:44:06.914Z,18.00
2018-05-25T05:46:34.426Z,18.20
2018-05-25T05:49:01.958Z,18.30
2018-05-25T05:51:30.237Z,18.80
2018-05-25T05:53:58.526Z,19.00
2018-05-25T05:56:26.202Z,19.00
2018-05-25T05:58:53.722Z,19.20
2018-05-25T06:01:22.038Z,19.50
2018-05-25T06:03:49.563Z,19.40
2018-05-25T06:06:17.847Z,19.30
2018-05-25T06:08:46.110Z,19.20
2018-05-25T06:11:15.107Z,19.30
2018-05-25T06:13:43.392Z,19.30
2018-05-25T06:16:11.664Z,19.40
2018-05-25T06:18:40.690Z,19.50
2018-05-25T06:21:08.210Z,19.50
2018-05-25T06:23:37.235Z,19.70
2018-05-25T06:26:05.486Z,19.80
2018-05-25T06:28:32.982Z,19.80
2018-05-25T06:31:00.496Z,19.80
2018-05-25T06:33:28.012Z,20.00
2018-05-25T06:35:55.517Z,20.00
2018-05-25T06:38:23.039Z,20.10
2018-05-25T06:40:50.543Z,20.10
2018-05-25T06:43:18.059Z,20.10
2018-05-25T06:45:45.556Z,20.20
2018-05-25T06:48:13.079Z,20.20
2018-05-25T06:50:40.740Z,20.30
2018-05-25T06:53:08.334Z,20.30
2018-05-25T06:55:35.860Z,20.30
2018-05-25T06:58:03.429Z,20.20
2018-05-25T07:00:30.906Z,20.30
2018-05-25T07:02:58.433Z,20.30
2018-05-25T07:05:25.965Z,20.40
2018-05-25T07:07:54.258Z,20.50
2018-05-25T07:10:21.787Z,20.50
2018-05-25T07:12:49.295Z,20.60
2018-05-25T07:15:16.807Z,20.80
2018-05-25T07:17:44.332Z,20.90
2018-05-25T07:20:11.858Z,21.00
2018-05-25T07:22:39.362Z,21.00
2018-05-25T07:25:06.874Z,21.10
2018-05-25T07:27:35.142Z,21.40
2018-05-25T07:30:03.427Z,21.60
2018-05-25T07:32:31.699Z,21.70
2018-05-25T07:34:59.970Z,21.80
2018-05-25T07:37:28.446Z,21.90
2018-05-25T07:39:56.743Z,22.00
2018-05-25T07:42:25.012Z,22.20
2018-05-25T07:44:53.286Z,22.60
2018-05-25T07:47:21.566Z,23.20
2018-05-25T07:49:49.146Z,23.10
2018-05-25T07:52:16.674Z,23.80
2018-05-25T07:54:44.268Z,24.30
2018-05-25T07:57:11.906Z,24.60
2018-05-25T07:59:40.225Z,25.20
2018-05-25T08:02:07.736Z,25.10
2018-05-25T08:04:35.232Z,25.10
2018-05-25T08:07:02.739Z,25.00
2018-05-25T08:09:30.231Z,24.70
2018-05-25T08:11:58.560Z,23.90
2018-05-25T08:14:26.039Z,23.80
2018-05-25T08:16:53.571Z,23.70
2018-05-25T08:19:21.099Z,23.50
2018-05-25T08:21:49.448Z,23.20
2018-05-25T08:24:16.939Z,23.20
2018-05-25T08:26:45.214Z,23.00
2018-05-25T08:29:13.512Z,23.00
2018-05-25T08:31:41.038Z,23.00
2018-05-25T08:34:08.641Z,23.10
2018-05-25T08:36:36.182Z,23.20
2018-05-25T08:39:03.675Z,23.30
2018-05-25T08:41:31.208Z,23.50
2018-05-25T08:43:58.702Z,23.60
2018-05-25T08:46:26.217Z,23.70
2018-05-25T08:48:54.504Z,23.90
2018-05-25T08:51:22.370Z,23.80
2018-05-25T08:53:49.947Z,24.00
2018-05-25T08:56:18.349Z,24.00
2018-05-25T08:58:45.878Z,24.00
2018-05-25T09:01:13.439Z,24.10
2018-05-25T09:03:40.986Z,24.20
2018-05-25T09:06:08.550Z,24.30
2018-05-25T09:08:36.828Z,24.40
2018-05-25T09:11:05.126Z,24.40
2018-05-25T09:13:32.636Z,24.40
2018-05-25T09:16:00.195Z,24.50
2018-05-25T09:18:29.252Z,24.60
2018-05-25T09:20:56.763Z,24.60
2018-05-25T09:23:25.054Z,24.80
2018-05-25T09:25:53.343Z,24.90
2018-05-25T09:28:20.903Z,24.80
2018-05-25T09:30:48.440Z,24.80
2018-05-25T09:33:15.923Z,24.90
2018-05-25T09:35:43.416Z,24.90
2018-05-25T09:38:10.942Z,25.00
2018-05-25T09:40:38.438Z,25.00
2018-05-25T09:43:05.938Z,25.10
2018-05-25T09:45:33.449Z,25.10
2018-05-25T09:48:00.985Z,25.10
2018-05-25T09:50:28.525Z,25.20
2018-05-25T09:52:56.841Z,25.30
2018-05-25T09:55:24.403Z,25.30
2018-05-25T09:57:56.778Z,25.30
2018-05-25T10:00:25.190Z,25.50
2018-05-25T10:02:52.706Z,25.60
2018-05-25T10:05:20.210Z,25.50
2018-05-25T10:07:47.729Z,25.20
2018-05-25T10:10:15.231Z,25.00
2018-05-25T10:12:43.549Z,24.90
2018-05-25T10:15:11.811Z,24.90
2018-05-25T10:17:40.124Z,25.10
2018-05-25T10:20:07.797Z,25.10
2018-05-25T10:22:35.337Z,25.20
2018-05-25T10:25:03.123Z,25.20
2018-05-25T10:27:30.728Z,25.30
2018-05-25T10:29:58.332Z,25.50
2018-05-25T10:32:25.822Z,25.60
2018-05-25T10:34:53.335Z,25.70
2018-05-25T10:40:12.070Z,25.80
2018-05-25T10:42:39.556Z,26.00
2018-05-25T10:45:07.144Z,25.90
2018-05-25T10:47:35.103Z,25.80
2018-05-25T10:50:03.374Z,25.80
2018-05-25T10:52:31.620Z,25.70
2018-05-25T10:54:59.201Z,25.60
2018-05-25T11:03:12.928Z,25.20
2018-05-25T11:05:40.397Z,25.20
2018-05-25T11:08:07.897Z,25.30
2018-05-25T11:10:35.454Z,25.30
2018-05-25T11:13:02.922Z,25.60
2018-05-25T11:15:31.164Z,25.50
2018-05-25T11:17:58.640Z,25.50
2018-05-25T11:20:26.128Z,25.30
2018-05-25T11:22:54.373Z,25.50
2018-05-25T11:25:21.856Z,25.50
2018-05-25T11:30:40.908Z,25.90
2018-05-25T11:33:08.365Z,26.10
2018-05-25T11:35:35.850Z,26.20
2018-05-25T11:38:03.334Z,26.20
2018-05-25T11:40:31.707Z,26.70
2018-05-25T11:42:59.947Z,26.80
2018-05-25T11:45:27.448Z,26.80
2018-05-25T11:47:55.691Z,27.00
2018-05-25T11:50:23.361Z,27.00
2018-05-25T11:52:50.836Z,27.10
2018-05-25T11:55:19.107Z,27.10
2018-05-25T11:57:46.667Z,27.10
2018-05-25T12:00:14.151Z,27.00
2018-05-25T12:05:36.240Z,26.50
2018-05-25T12:10:56.536Z,26.50
2018-05-25T12:13:24.021Z,26.50
2018-05-25T12:21:34.250Z,26.60
2018-05-25T12:24:01.757Z,26.60
2018-05-25T12:26:29.267Z,26.70
2018-05-25T12:34:38.227Z,26.70
2018-05-25T12:37:07.209Z,26.80
2018-05-25T12:39:34.696Z,26.80
2018-05-25T12:42:02.943Z,27.20
2018-05-25T12:44:30.432Z,27.10
2018-05-25T12:46:58.696Z,27.60
2018-05-25T12:49:26.222Z,27.50
2018-05-25T12:51:53.696Z,27.70
2018-05-25T12:54:21.212Z,27.60
2018-05-25T12:56:48.746Z,27.50
2018-05-25T12:59:16.234Z,27.40
2018-05-25T13:01:43.717Z,27.30
2018-05-25T13:04:11.234Z,27.20
2018-05-25T13:06:39.519Z,27.00
2018-05-25T13:09:07.788Z,26.90
2018-05-25T13:11:36.039Z,26.90
2018-05-25T13:14:03.523Z,26.80
2018-05-25T13:25:08.995Z,26.90
2018-05-25T13:27:36.479Z,26.90
2018-05-25T13:30:03.966Z,26.80
2018-05-25T13:38:13.637Z,26.30
2018-05-25T13:40:41.885Z,26.30
2018-05-25T13:43:09.477Z,26.20
2018-05-25T13:45:37.729Z,26.20
2018-05-25T13:48:06.761Z,26.20
2018-05-25T13:50:35.008Z,26.20
2018-05-25T13:53:02.501Z,26.20
2018-05-25T13:55:30.021Z,26.20
2018-05-25T13:57:57.540Z,26.20
2018-05-25T14:00:25.150Z,26.20
2018-05-25T14:02:53.450Z,26.30
2018-05-25T14:05:21.703Z,26.40
2018-05-25T14:07:49.217Z,26.40
2018-05-25T14:10:16.700Z,26.60
2018-05-25T14:12:44.195Z,26.40
2018-05-25T14:15:12.267Z,26.40
2018-05-25T14:17:39.857Z,26.20
2018-05-25T14:20:07.339Z,26.20
2018-05-25T14:22:34.824Z,26.20
2018-05-25T14:25:02.339Z,26.20
2018-05-25T14:27:30.269Z,26.30
2018-05-25T14:29:57.756Z,26.40
2018-05-25T14:32:25.561Z,26.50
2018-05-25T14:34:53.054Z,26.70
2018-05-25T14:37:20.543Z,26.70
2018-05-25T14:39:48.038Z,26.80
2018-05-25T14:42:16.323Z,26.70
2018-05-25T14:44:43.799Z,26.70
2018-05-25T14:47:11.308Z,26.70
2018-05-25T14:58:13.964Z,26.70
2018-05-25T15:00:42.126Z,26.60
2018-05-25T15:03:09.581Z,26.50
2018-05-25T15:05:37.072Z,26.50
2018-05-25T15:08:05.231Z,26.50
2018-05-25T15:10:32.916Z,26.40
2018-05-25T15:13:00.431Z,26.40
2018-05-25T15:15:28.684Z,26.30
2018-05-25T15:17:56.182Z,26.30
2018-05-25T15:20:23.727Z,26.30
2018-05-25T15:22:52.007Z,26.30
2018-05-25T15:25:19.543Z,26.20
2018-05-25T15:27:47.063Z,26.30
2018-05-25T15:30:14.572Z,26.20
2018-05-25T15:32:43.071Z,26.20
2018-05-25T15:35:10.412Z,26.20
2018-05-25T15:37:39.626Z,26.20
2018-05-25T15:40:07.184Z,26.20
2018-05-25T15:42:35.448Z,26.20
2018-05-25T15:45:03.724Z,26.20
2018-05-25T15:47:32.093Z,26.10
2018-05-25T15:49:59.659Z,26.10
2018-05-25T15:55:01.859Z,26.00
2018-05-25T15:57:30.120Z,26.00
2018-05-25T15:59:58.527Z,26.00
2018-05-25T16:02:26.074Z,25.90
2018-05-25T16:04:53.541Z,25.90
2018-05-25T16:07:21.800Z,25.80
2018-05-25T16:09:49.397Z,25.80
2018-05-25T16:12:16.952Z,25.90
2018-05-25T16:14:45.203Z,25.80
2018-05-25T16:17:12.690Z,25.70
2018-05-25T16:19:40.204Z,25.80
2018-05-25T16:22:07.668Z,25.80
2018-05-25T16:24:35.142Z,25.80
2018-05-25T16:27:02.726Z,25.70
2018-05-25T16:29:30.982Z,25.70
2018-05-25T16:31:58.458Z,25.70
2018-05-25T16:34:26.737Z,25.70
2018-05-25T16:36:55.017Z,25.60
2018-05-25T16:39:23.292Z,25.60
2018-05-25T16:41:51.867Z,25.50
2018-05-25T16:44:20.139Z,25.50
2018-05-25T16:46:47.711Z,25.40
2018-05-25T16:49:15.950Z,25.40
2018-05-25T16:51:43.439Z,25.40
2018-05-25T16:54:11.683Z,25.40
2018-05-25T16:56:39.191Z,25.40
2018-05-25T16:59:07.467Z,25.30
2018-05-25T17:01:35.708Z,25.20
2018-05-25T17:04:03.196Z,25.20
2018-05-25T17:06:31.554Z,25.10
2018-05-25T17:08:59.060Z,25.00
2018-05-25T17:11:26.560Z,25.00
2018-05-25T17:13:54.040Z,25.00
2018-05-25T17:16:21.632Z,24.90
2018-05-25T17:18:49.891Z,24.50
2018-05-25T17:21:18.160Z,24.40
2018-05-25T17:26:38.562Z,24.20
2018-05-25T17:29:06.019Z,24.20
2018-05-25T17:31:33.544Z,24.10
2018-05-25T17:34:01.050Z,24.00
2018-05-25T17:36:29.344Z,23.80
2018-05-25T17:38:57.631Z,23.70
2018-05-25T17:41:25.883Z,23.70
2018-05-25T17:43:53.368Z,23.60
2018-05-25T17:46:21.732Z,23.50
2018-05-25T17:48:49.988Z,23.50
2018-05-25T17:51:17.485Z,23.40
2018-05-25T17:53:44.959Z,23.40
2018-05-25T17:56:12.449Z,23.30
2018-05-25T17:58:39.934Z,23.30
2018-05-25T18:01:07.407Z,23.20
2018-05-25T18:03:35.715Z,23.00
2018-05-25T18:06:03.306Z,22.90
2018-05-25T18:08:30.801Z,23.00
2018-05-25T18:10:58.309Z,22.90
2018-05-25T18:13:25.957Z,22.90
2018-05-25T18:15:53.503Z,22.80
2018-05-25T18:18:21.746Z,22.70
2018-05-25T18:20:49.390Z,22.60
2018-05-25T18:23:16.887Z,22.60
2018-05-25T18:25:44.692Z,22.60
2018-05-25T18:28:12.181Z,22.50
2018-05-25T18:30:39.700Z,22.50
2018-05-25T18:33:07.224Z,22.40
2018-05-25T18:35:34.792Z,22.30
2018-05-25T18:38:03.081Z,22.20
2018-05-25T18:40:31.375Z,22.10
2018-05-25T18:42:58.964Z,22.00
2018-05-25T18:45:26.464Z,22.00
2018-05-25T18:47:53.951Z,22.00
2018-05-25T18:50:22.756Z,21.80
2018-05-25T18:52:50.247Z,21.80
2018-05-25T18:55:17.740Z,21.70
2018-05-25T18:57:46.021Z,21.60
2018-05-25T19:00:14.264Z,21.50
2018-05-25T19:02:41.758Z,21.40
2018-05-25T19:05:10.140Z,21.30
2018-05-25T19:07:38.405Z,21.30
2018-05-25T19:10:05.979Z,21.30
2018-05-25T19:12:34.235Z,21.20
2018-05-25T19:15:01.707Z,21.10
2018-05-25T19:17:29.191Z,21.00
2018-05-25T19:19:56.712Z,20.90
2018-05-25T19:22:24.162Z,20.90
2018-05-25T19:24:51.654Z,20.90
2018-05-25T19:27:19.896Z,20.80
2018-05-25T19:29:47.602Z,20.70
2018-05-25T19:32:15.887Z,20.70
2018-05-25T19:34:44.152Z,20.60
2018-05-25T19:37:12.407Z,20.50
2018-05-25T19:39:40.009Z,20.40
2018-05-25T19:42:07.501Z,20.40
2018-05-25T19:44:35.061Z,20.40
2018-05-25T19:47:02.716Z,20.30
2018-05-25T19:49:30.228Z,20.20
2018-05-25T19:51:58.518Z,20.10
2018-05-25T19:54:26.765Z,20.00
2018-05-25T19:56:54.376Z,20.00
2018-05-25T19:59:21.929Z,19.90
2018-05-25T20:01:49.409Z,19.90
2018-05-25T20:04:16.940Z,19.90
2018-05-25T20:06:45.258Z,19.70
2018-05-25T20:09:12.801Z,19.70
2018-05-25T20:11:40.285Z,19.70
2018-05-25T20:14:07.817Z,19.60
2018-05-25T20:16:35.377Z,19.60
2018-05-25T20:19:02.920Z,19.60
2018-05-25T20:21:30.417Z,19.50
2018-05-25T20:23:57.935Z,19.50
2018-05-25T20:26:26.221Z,19.40
2018-05-25T20:28:54.476Z,19.30
2018-05-25T20:31:22.045Z,19.30
2018-05-25T20:33:50.295Z,19.20
2018-05-25T20:36:17.844Z,19.20
2018-05-25T20:38:45.351Z,18.60
2018-05-25T20:41:13.640Z,19.00
2018-05-25T20:43:41.124Z,19.00
2018-05-25T20:46:08.717Z,19.00
2018-05-25T20:48:36.356Z,18.90
2018-05-25T20:51:03.924Z,18.80
2018-05-25T20:53:31.423Z,18.70
2018-05-25T20:55:59.703Z,18.70
2018-05-25T20:58:28.642Z,18.70
2018-05-25T21:00:56.144Z,18.60
2018-05-25T21:03:23.684Z,18.70
2018-05-25T21:05:51.176Z,18.60
2018-05-25T21:08:19.428Z,18.50
2018-05-25T21:10:46.953Z,18.50
2018-05-25T21:13:14.499Z,18.50
2018-05-25T21:15:42.057Z,18.50
2018-05-25T21:18:09.741Z,18.50
2018-05-25T21:20:37.247Z,18.40
2018-05-25T21:23:04.737Z,18.30
2018-05-25T21:25:33.181Z,18.20
2018-05-25T21:28:00.716Z,18.10
2018-05-25T21:30:28.305Z,18.10
2018-05-25T21:32:55.776Z,18.10
2018-05-25T21:35:24.036Z,18.10
2018-05-25T21:37:51.526Z,18.00
2018-05-25T21:40:19.866Z,18.00
2018-05-25T21:42:47.436Z,18.00
2018-05-25T21:45:15.820Z,18.00
2018-05-25T21:47:43.353Z,17.90
2018-05-25T21:50:10.857Z,18.00
2018-05-25T21:52:39.281Z,18.00
2018-05-25T21:55:06.837Z,17.90
2018-05-25T21:57:34.328Z,18.00
2018-05-25T22:00:01.837Z,18.00
2018-05-25T22:02:30.129Z,17.90
2018-05-25T22:04:58.408Z,17.80
2018-05-25T22:07:25.933Z,17.80
2018-05-25T22:09:54.246Z,17.80
2018-05-25T22:12:21.750Z,17.70
2018-05-25T22:14:49.340Z,17.80
2018-05-25T22:17:17.624Z,17.70
2018-05-25T22:19:45.898Z,17.70
2018-05-25T22:22:14.176Z,17.60
2018-05-25T22:24:42.543Z,17.60
2018-05-25T22:27:10.228Z,17.60
2018-05-25T22:29:38.676Z,17.50
2018-05-25T22:32:06.224Z,17.50
2018-05-25T22:34:33.791Z,17.50
2018-05-25T22:37:01.422Z,17.50
2018-05-25T22:39:28.911Z,17.40
2018-05-25T22:41:55.911Z,17.40
2018-05-25T22:44:35.420Z,17.40
2018-05-25T22:47:15.106Z,17.30
2018-05-25T22:49:54.484Z,17.10
2018-05-25T22:52:27.173Z,17.10
2018-05-25T22:54:57.609Z,17.10
2018-05-25T22:57:25.324Z,17.10
2018-05-25T22:59:52.812Z,17.10
2018-05-25T23:02:20.464Z,17.20
2018-05-25T23:04:47.940Z,17.20
2018-05-25T23:07:15.531Z,17.20
2018-05-25T23:09:43.780Z,17.20
2018-05-25T23:12:11.367Z,17.20
2018-05-25T23:14:39.691Z,17.10
2018-05-25T23:17:07.451Z,17.10
2018-05-25T23:19:35.190Z,17.10
2018-05-25T23:22:03.712Z,17.10
2018-05-25T23:24:31.191Z,17.10
2018-05-25T23:26:58.817Z,17.10
2018-05-25T23:29:26.304Z,17.10
2018-05-25T23:31:54.004Z,17.10
2018-05-25T23:34:21.853Z,17.10
2018-05-25T23:36:49.490Z,17.10
2018-05-25T23:39:16.974Z,17.00
2018-05-25T23:41:45.958Z,16.80
2018-05-25T23:44:13.600Z,16.80
2018-05-25T23:46:41.084Z,16.80
2018-05-25T23:49:08.595Z,16.80
2018-05-25T23:51:36.411Z,16.70
2018-05-25T23:54:03.922Z,16.70
2018-05-25T23:56:31.552Z,16.70
2018-05-25T23:58:59.040Z,16.70
